createdAt,value
2022-11-29T00:01:21.231Z,22.83
2022-11-29T00:04:10.151Z,28.00
2022-11-29T00:07:02.244Z,28.63
2022-11-29T00:09:54.508Z,22.17
2022-11-29T00:12:45.566Z,26.73
2022-11-29T00:15:40.542Z,23.30
2022-11-29T00:18:34.597Z,27.37
2022-11-29T00:21:26.075Z,30.03
2022-11-29T00:24:16.315Z,25.70
2022-11-29T00:27:05.053Z,27.90
2022-11-29T00:29:56.074Z,27.90
2022-11-29T00:32:49.039Z,25.17
2022-11-29T00:35:40.574Z,24.33
2022-11-29T00:38:31.174Z,26.70
2022-11-29T00:41:19.790Z,29.23
2022-11-29T00:44:14.054Z,26.53
2022-11-29T00:47:10.815Z,29.83
2022-11-29T00:50:00.519Z,30.80
2022-11-29T00:52:49.506Z,29.73
2022-11-29T00:55:38.071Z,30.00
2022-11-29T00:58:42.401Z,25.77
2022-11-29T01:01:33.052Z,29.83
2022-11-29T01:04:26.706Z,28.87
2022-11-29T01:07:15.355Z,29.50
2022-11-29T01:10:03.955Z,26.90
2022-11-29T01:12:56.407Z,30.70
2022-11-29T01:15:53.970Z,29.13
2022-11-29T01:18:43.812Z,32.00
2022-11-29T01:21:39.128Z,29.40
2022-11-29T01:24:29.737Z,27.30
2022-11-29T01:27:27.658Z,26.93
2022-11-29T01:30:21.355Z,27.57
2022-11-29T01:33:09.889Z,33.10
2022-11-29T01:36:02.841Z,27.97
2022-11-29T01:38:53.120Z,30.63
2022-11-29T01:41:44.643Z,30.37
2022-11-29T01:44:51.120Z,31.37
2022-11-29T01:47:41.363Z,27.80
2022-11-29T01:50:29.907Z,30.50
2022-11-29T01:53:18.590Z,30.20
2022-11-29T01:56:09.501Z,30.87
2022-11-29T01:59:00.699Z,31.77
2022-11-29T02:01:51.388Z,35.40
2022-11-29T02:04:46.927Z,31.13
2022-11-29T02:07:45.495Z,31.27
2022-11-29T02:10:41.348Z,31.60
2022-11-29T02:13:36.252Z,31.30
2022-11-29T02:16:28.907Z,30.90
2022-11-29T02:19:30.993Z,29.10
2022-11-29T02:22:23.315Z,33.10
2022-11-29T02:25:23.931Z,34.50
2022-11-29T02:28:28.251Z,32.20
2022-11-29T02:31:53.398Z,33.37
2022-11-29T02:34:53.913Z,35.10
2022-11-29T02:37:52.567Z,32.20
2022-11-29T02:41:07.678Z,33.83
2022-11-29T02:44:18.534Z,32.93
2022-11-29T02:47:16.709Z,33.33
2022-11-29T02:50:15.494Z,30.13
2022-11-29T02:53:08.059Z,34.83
2022-11-29T02:55:58.927Z,32.60
2022-11-29T02:58:52.161Z,33.10
2022-11-29T03:01:43.823Z,36.37
2022-11-29T03:04:46.712Z,32.77
2022-11-29T03:07:40.789Z,34.10
2022-11-29T03:10:37.911Z,34.80
2022-11-29T03:13:35.483Z,34.37
2022-11-29T03:16:43.642Z,33.80
2022-11-29T03:19:54.599Z,35.23
2022-11-29T03:22:49.599Z,29.23
2022-11-29T03:25:48.811Z,35.00
2022-11-29T03:28:43.389Z,33.80
2022-11-29T03:31:35.860Z,35.73
2022-11-29T03:34:34.458Z,34.00
2022-11-29T03:37:25.223Z,39.37
2022-11-29T03:40:18.605Z,35.53
2022-11-29T03:43:13.563Z,36.77
2022-11-29T03:46:04.372Z,39.97
2022-11-29T03:48:59.158Z,36.20
2022-11-29T03:52:01.921Z,35.77
2022-11-29T03:55:08.612Z,36.73
2022-11-29T03:58:06.367Z,37.73
2022-11-29T04:01:08.712Z,36.20
2022-11-29T04:04:17.296Z,36.87
2022-11-29T04:07:09.499Z,34.43
2022-11-29T04:10:06.413Z,40.23
2022-11-29T04:13:12.503Z,35.23
2022-11-29T04:16:19.939Z,38.57
2022-11-29T04:19:28.105Z,35.17
2022-11-29T04:22:29.527Z,35.03
2022-11-29T04:25:38.164Z,38.20
2022-11-29T04:28:45.809Z,36.17
2022-11-29T04:31:57.899Z,36.60
2022-11-29T04:34:58.887Z,34.23
2022-11-29T04:38:05.900Z,35.53
2022-11-29T04:41:19.693Z,40.73
2022-11-29T04:44:21.577Z,38.00
2022-11-29T04:47:28.218Z,38.30
2022-11-29T04:50:28.489Z,37.77
2022-11-29T04:53:33.026Z,36.10
2022-11-29T04:56:28.453Z,33.30
2022-11-29T04:59:29.448Z,37.77
2022-11-29T05:02:31.207Z,38.43
2022-11-29T05:05:25.545Z,37.70
2022-11-29T05:08:21.923Z,38.67
2022-11-29T05:11:26.263Z,33.77
2022-11-29T05:14:21.680Z,36.20
2022-11-29T05:17:26.531Z,39.07
2022-11-29T05:20:24.729Z,38.90
2022-11-29T05:23:23.539Z,35.57
2022-11-29T05:26:16.622Z,37.73
2022-11-29T05:29:10.339Z,35.83
2022-11-29T05:32:11.702Z,38.20
2022-11-29T05:35:08.729Z,42.63
2022-11-29T05:38:06.909Z,37.60
2022-11-29T05:41:07.197Z,42.97
2022-11-29T05:44:07.465Z,39.37
2022-11-29T05:46:59.914Z,38.93
2022-11-29T05:49:57.219Z,36.20
2022-11-29T05:52:51.262Z,39.70
2022-11-29T05:55:49.384Z,41.07
2022-11-29T05:58:44.781Z,39.80
2022-11-29T06:01:39.428Z,43.13
2022-11-29T06:04:31.193Z,40.43
2022-11-29T06:07:21.564Z,37.97
2022-11-29T06:10:13.219Z,40.40
2022-11-29T06:13:13.328Z,38.83
2022-11-29T06:16:10.044Z,39.60
2022-11-29T06:19:22.648Z,37.37
2022-11-29T06:22:26.706Z,39.00
2022-11-29T06:25:23.926Z,38.17
2022-11-29T06:28:30.136Z,40.80
2022-11-29T06:31:25.898Z,40.40
2022-11-29T06:34:18.909Z,41.83
2022-11-29T06:37:12.843Z,43.10
2022-11-29T06:40:01.607Z,37.67
2022-11-29T06:42:51.268Z,43.53
2022-11-29T06:45:40.903Z,43.60
2022-11-29T06:48:34.759Z,42.00
2022-11-29T06:51:29.895Z,38.87
2022-11-29T06:54:24.483Z,38.60
2022-11-29T06:57:21.582Z,40.53
2022-11-29T07:00:21.555Z,44.30
2022-11-29T07:03:34.102Z,39.87
2022-11-29T07:06:25.555Z,43.47
2022-11-29T07:09:18.089Z,42.33
2022-11-29T07:12:12.988Z,38.37
2022-11-29T07:15:07.695Z,39.73
2022-11-29T07:18:06.842Z,46.57
2022-11-29T07:20:59.409Z,41.27
2022-11-29T07:23:59.589Z,37.53
2022-11-29T07:26:59.305Z,44.03
2022-11-29T07:30:00.808Z,41.73
2022-11-29T07:33:02.465Z,41.50
2022-11-29T07:35:59.609Z,41.63
2022-11-29T07:39:01.799Z,40.10
2022-11-29T07:41:54.917Z,39.27
2022-11-29T07:44:49.200Z,38.90
2022-11-29T07:47:40.571Z,44.63
2022-11-29T07:50:36.527Z,38.90
2022-11-29T07:53:30.218Z,40.43
2022-11-29T07:56:24.532Z,40.57
2022-11-29T07:59:23.448Z,40.20
2022-11-29T08:02:16.959Z,43.93
2022-11-29T08:05:08.570Z,40.87
2022-11-29T08:08:02.369Z,37.47
2022-11-29T08:10:54.809Z,40.60
2022-11-29T08:13:51.259Z,41.23
2022-11-29T08:16:39.825Z,41.93
2022-11-29T08:19:38.715Z,38.77
2022-11-29T08:22:33.539Z,45.17
2022-11-29T08:25:25.135Z,39.47
2022-11-29T08:28:13.782Z,42.43
2022-11-29T08:31:13.210Z,39.63
2022-11-29T08:34:09.129Z,38.80
2022-11-29T08:36:58.939Z,40.10
2022-11-29T08:39:51.663Z,38.50
2022-11-29T08:42:44.419Z,43.70
2022-11-29T08:45:39.121Z,42.00
2022-11-29T08:48:39.228Z,41.27
2022-11-29T08:51:32.205Z,41.03
2022-11-29T08:54:21.732Z,37.77
2022-11-29T08:57:39.276Z,45.60
2022-11-29T09:00:24.104Z,39.10
2022-11-29T09:03:31.591Z,40.20
2022-11-29T09:06:23.266Z,38.57
2022-11-29T09:09:15.218Z,41.30
2022-11-29T09:12:07.397Z,37.63
2022-11-29T09:15:03.331Z,39.03
2022-11-29T09:17:53.807Z,39.23
2022-11-29T09:20:51.495Z,40.67
2022-11-29T09:23:42.271Z,42.73
2022-11-29T09:26:31.832Z,38.60
2022-11-29T09:29:21.719Z,36.63
2022-11-29T09:32:15.941Z,45.70
2022-11-29T09:35:04.552Z,38.23
2022-11-29T09:37:53.097Z,39.73
2022-11-29T09:40:51.663Z,44.33
2022-11-29T09:43:44.642Z,43.00
2022-11-29T09:46:40.550Z,40.47
2022-11-29T09:49:36.549Z,39.77
2022-11-29T09:52:35.426Z,41.07
2022-11-29T09:55:37.869Z,40.03
2022-11-29T09:58:31.702Z,42.77
2022-11-29T10:01:22.525Z,39.93
2022-11-29T10:04:16.257Z,39.90
2022-11-29T10:07:07.132Z,41.27
2022-11-29T10:09:58.154Z,38.10
2022-11-29T10:12:53.706Z,41.80
2022-11-29T10:15:45.668Z,43.40
2022-11-29T10:18:38.758Z,41.40
2022-11-29T10:21:30.430Z,43.30
2022-11-29T10:24:20.601Z,41.70
2022-11-29T10:27:12.631Z,41.30
2022-11-29T10:30:04.986Z,40.57
2022-11-29T10:32:59.084Z,40.03
2022-11-29T10:35:53.959Z,41.77
2022-11-29T10:38:44.110Z,40.70
2022-11-29T10:41:37.013Z,39.33
2022-11-29T10:44:28.222Z,41.57
2022-11-29T10:47:16.827Z,41.90
2022-11-29T10:50:09.376Z,41.03
2022-11-29T10:53:00.717Z,40.53
2022-11-29T10:55:53.132Z,40.57
2022-11-29T10:58:54.964Z,42.70
2022-11-29T11:01:46.993Z,41.63
2022-11-29T11:04:39.859Z,36.90
2022-11-29T11:07:41.791Z,45.70
2022-11-29T11:10:33.040Z,40.90
2022-11-29T11:13:26.336Z,39.23
2022-11-29T11:16:20.812Z,40.30
2022-11-29T11:19:39.328Z,41.13
2022-11-29T11:22:30.599Z,44.20
2022-11-29T11:25:33.200Z,35.77
2022-11-29T11:28:24.788Z,42.07
2022-11-29T11:31:20.607Z,38.37
2022-11-29T11:34:33.395Z,41.10
2022-11-29T11:37:28.284Z,39.27
2022-11-29T11:40:29.387Z,39.80
2022-11-29T11:43:26.614Z,38.83
2022-11-29T11:46:20.589Z,39.53
2022-11-29T11:49:16.553Z,40.10
2022-11-29T11:52:06.530Z,41.80
2022-11-29T11:55:02.202Z,45.17
2022-11-29T11:57:59.075Z,44.93
2022-11-29T12:01:06.551Z,43.33
2022-11-29T12:03:58.818Z,41.53
2022-11-29T12:06:52.765Z,42.57
2022-11-29T12:09:43.536Z,39.47
2022-11-29T12:12:33.433Z,42.73
2022-11-29T12:15:23.732Z,40.17
2022-11-29T12:18:21.918Z,43.03
2022-11-29T12:21:17.575Z,43.23
2022-11-29T12:24:13.248Z,42.73
2022-11-29T12:27:05.493Z,41.63
2022-11-29T12:29:55.071Z,43.37
2022-11-29T12:33:05.972Z,46.83
2022-11-29T12:36:04.946Z,44.37
2022-11-29T12:39:04.483Z,45.00
2022-11-29T12:42:00.102Z,45.43
2022-11-29T12:44:52.759Z,44.60
2022-11-29T12:47:51.935Z,49.27
2022-11-29T12:50:47.675Z,45.53
2022-11-29T12:53:54.435Z,46.20
2022-11-29T12:56:49.435Z,43.80
2022-11-29T12:59:47.419Z,45.77
2022-11-29T13:02:45.306Z,44.43
2022-11-29T13:05:41.062Z,46.60
2022-11-29T13:08:46.676Z,44.67
2022-11-29T13:11:37.979Z,47.13
2022-11-29T13:14:44.168Z,47.37
2022-11-29T13:17:37.918Z,47.27
2022-11-29T13:20:37.655Z,42.13
2022-11-29T13:24:07.238Z,45.50
2022-11-29T13:26:55.460Z,46.50
2022-11-29T13:29:48.449Z,46.43
2022-11-29T13:32:39.103Z,44.73
2022-11-29T13:35:32.641Z,46.30
2022-11-29T13:38:29.754Z,49.80
2022-11-29T13:41:28.544Z,40.50
2022-11-29T13:44:24.555Z,45.13
2022-11-29T13:47:18.550Z,49.00
2022-11-29T13:50:15.610Z,43.83
2022-11-29T13:53:04.800Z,40.60
2022-11-29T13:56:01.910Z,48.33
2022-11-29T13:58:54.980Z,44.27
2022-11-29T14:02:03.239Z,43.60
2022-11-29T14:04:58.393Z,47.20
2022-11-29T14:08:03.879Z,48.33
2022-11-29T14:10:55.151Z,42.37
2022-11-29T14:13:57.086Z,47.47
2022-11-29T14:16:49.946Z,44.27
2022-11-29T14:19:40.156Z,44.87
2022-11-29T14:22:43.354Z,45.53
2022-11-29T14:25:58.827Z,52.50
2022-11-29T14:28:53.028Z,45.50
2022-11-29T14:31:53.598Z,41.40
2022-11-29T14:34:50.952Z,50.00
2022-11-29T14:38:03.283Z,48.03
2022-11-29T14:40:57.536Z,46.70
2022-11-29T14:43:48.132Z,47.83
2022-11-29T14:46:41.285Z,44.57
2022-11-29T14:49:35.432Z,45.53
2022-11-29T14:52:37.074Z,47.30
2022-11-29T14:55:45.261Z,50.83
2022-11-29T14:58:38.156Z,47.90
2022-11-29T15:01:32.556Z,48.43
2022-11-29T15:04:27.067Z,49.10
2022-11-29T15:07:20.930Z,50.73
2022-11-29T15:10:17.377Z,49.33
2022-11-29T15:13:15.620Z,46.27
2022-11-29T15:16:14.196Z,50.10
2022-11-29T15:19:28.012Z,45.07
2022-11-29T15:22:23.489Z,49.00
2022-11-29T15:25:15.370Z,49.30
2022-11-29T15:28:08.894Z,48.13
2022-11-29T15:31:05.851Z,50.30
2022-11-29T15:33:54.481Z,47.00
2022-11-29T15:36:44.820Z,50.07
2022-11-29T15:39:36.053Z,49.50
2022-11-29T15:42:32.466Z,52.43
2022-11-29T15:45:28.406Z,47.57
2022-11-29T15:48:22.716Z,49.93
2022-11-29T15:51:18.727Z,49.53
2022-11-29T15:54:13.912Z,46.50
2022-11-29T15:57:05.263Z,47.23
2022-11-29T16:00:05.576Z,49.63
2022-11-29T16:02:58.733Z,48.27
2022-11-29T16:05:51.851Z,49.60
2022-11-29T16:08:43.300Z,47.70
2022-11-29T16:11:37.207Z,49.37
2022-11-29T16:14:28.494Z,47.43
2022-11-29T16:17:17.109Z,43.40
2022-11-29T16:20:23.402Z,46.30
2022-11-29T16:23:16.545Z,46.77
2022-11-29T16:26:11.834Z,50.37
2022-11-29T16:29:01.627Z,47.37
2022-11-29T16:31:56.276Z,48.30
2022-11-29T16:34:55.737Z,45.03
2022-11-29T16:37:46.328Z,51.13
2022-11-29T16:40:36.767Z,50.60
2022-11-29T16:43:46.726Z,46.37
2022-11-29T16:46:37.744Z,45.47
2022-11-29T16:49:38.158Z,46.67
2022-11-29T16:52:32.076Z,45.80
2022-11-29T16:55:31.467Z,49.63
2022-11-29T16:58:24.461Z,48.83
2022-11-29T17:01:29.701Z,47.67
2022-11-29T17:04:24.483Z,48.83
2022-11-29T17:07:25.579Z,50.07
2022-11-29T17:10:17.795Z,44.83
2022-11-29T17:13:06.373Z,44.47
2022-11-29T17:16:05.944Z,47.43
2022-11-29T17:19:08.512Z,50.67
2022-11-29T17:22:01.770Z,47.90
2022-11-29T17:24:54.938Z,49.30
2022-11-29T17:27:43.614Z,47.93
2022-11-29T17:30:40.516Z,44.33
2022-11-29T17:33:38.327Z,47.67
2022-11-29T17:36:30.503Z,48.20
2022-11-29T17:39:20.190Z,53.63
2022-11-29T17:42:17.592Z,49.10
2022-11-29T17:45:10.228Z,51.87
2022-11-29T17:48:00.650Z,47.83
2022-11-29T17:51:28.832Z,50.13
2022-11-29T17:54:22.283Z,47.30
2022-11-29T17:57:10.991Z,45.70
2022-11-29T17:59:59.567Z,52.50
2022-11-29T18:02:48.227Z,49.60
2022-11-29T18:05:36.900Z,48.43
2022-11-29T18:08:33.037Z,49.60
2022-11-29T18:11:22.507Z,55.80
2022-11-29T18:14:12.195Z,50.00
2022-11-29T18:17:02.179Z,54.10
2022-11-29T18:19:57.062Z,53.50
2022-11-29T18:22:50.760Z,52.90
2022-11-29T18:25:44.470Z,54.13
2022-11-29T18:28:36.786Z,49.40
2022-11-29T18:31:29.674Z,51.90
2022-11-29T18:34:18.502Z,54.80
2022-11-29T18:37:15.275Z,50.13
2022-11-29T18:40:09.984Z,49.77
2022-11-29T18:43:01.037Z,53.00
2022-11-29T18:45:49.664Z,53.10
2022-11-29T18:48:40.533Z,56.27
2022-11-29T18:51:29.671Z,58.83
2022-11-29T18:54:19.152Z,55.30
2022-11-29T18:57:07.853Z,53.20
2022-11-29T18:59:57.793Z,56.13
2022-11-29T19:02:51.199Z,58.67
2022-11-29T19:05:41.074Z,62.03
2022-11-29T19:08:31.521Z,54.80
2022-11-29T19:11:23.163Z,55.13
2022-11-29T19:14:14.654Z,50.60
2022-11-29T19:17:09.050Z,53.77
2022-11-29T19:19:59.154Z,52.90
2022-11-29T19:22:57.528Z,60.87
2022-11-29T19:25:50.365Z,53.47
2022-11-29T19:28:41.674Z,51.43
2022-11-29T19:31:39.855Z,53.17
2022-11-29T19:34:34.054Z,61.70
2022-11-29T19:37:22.683Z,57.60
2022-11-29T19:40:11.421Z,53.17
2022-11-29T19:43:04.411Z,55.37
2022-11-29T19:45:59.603Z,55.07
2022-11-29T19:48:51.276Z,56.27
2022-11-29T19:51:44.023Z,57.30
2022-11-29T19:54:34.483Z,56.67
2022-11-29T19:57:26.733Z,57.43
2022-11-29T20:00:15.860Z,52.23
2022-11-29T20:03:08.716Z,55.93
2022-11-29T20:05:59.700Z,51.23
2022-11-29T20:08:49.676Z,60.63
2022-11-29T20:11:39.491Z,59.53
2022-11-29T20:14:28.080Z,58.70
2022-11-29T20:17:22.308Z,62.97
2022-11-29T20:20:13.108Z,64.47
2022-11-29T20:23:01.787Z,55.90
2022-11-29T20:25:57.059Z,59.83
2022-11-29T20:28:46.262Z,57.87
2022-11-29T20:31:35.665Z,51.63
2022-11-29T20:34:27.129Z,58.20
2022-11-29T20:37:38.139Z,58.67
2022-11-29T20:40:32.971Z,58.23
2022-11-29T20:43:31.142Z,56.63
2022-11-29T20:46:22.876Z,56.70
2022-11-29T20:49:16.825Z,56.67
2022-11-29T20:52:10.073Z,58.13
2022-11-29T20:55:00.123Z,59.50
2022-11-29T20:57:53.456Z,51.90
2022-11-29T21:00:45.836Z,60.03
2022-11-29T21:03:34.527Z,63.80
2022-11-29T21:06:37.263Z,54.20
2022-11-29T21:09:29.435Z,60.67
2022-11-29T21:12:22.220Z,55.43
2022-11-29T21:15:12.029Z,56.20
2022-11-29T21:18:02.418Z,62.27
2022-11-29T21:20:58.852Z,55.97
2022-11-29T21:23:53.082Z,61.63
2022-11-29T21:26:44.949Z,60.30
2022-11-29T21:29:37.911Z,56.43
2022-11-29T21:32:31.444Z,61.50
2022-11-29T21:35:33.718Z,54.23
2022-11-29T21:38:24.991Z,59.67
2022-11-29T21:41:16.640Z,61.67
2022-11-29T21:44:12.391Z,54.20
2022-11-29T21:47:04.024Z,61.93
2022-11-29T21:50:00.607Z,61.57
2022-11-29T21:52:58.438Z,55.17
2022-11-29T21:55:47.021Z,59.60
2022-11-29T21:58:38.875Z,57.03
2022-11-29T22:01:34.028Z,66.13
2022-11-29T22:04:24.051Z,62.27
2022-11-29T22:07:14.392Z,58.13
2022-11-29T22:10:13.739Z,63.63
2022-11-29T22:13:02.443Z,57.97
2022-11-29T22:15:59.128Z,60.00
2022-11-29T22:18:49.608Z,60.37
2022-11-29T22:21:48.569Z,62.80
2022-11-29T22:24:44.258Z,54.47
2022-11-29T22:27:37.243Z,60.30
2022-11-29T22:30:27.969Z,57.77
2022-11-29T22:33:19.385Z,55.73
2022-11-29T22:36:11.150Z,58.00
2022-11-29T22:38:59.857Z,52.10
2022-11-29T22:41:53.889Z,59.60
2022-11-29T22:44:47.057Z,55.83
2022-11-29T22:47:38.102Z,60.63
2022-11-29T22:50:27.800Z,60.40
2022-11-29T22:53:16.450Z,58.60
2022-11-29T22:56:05.939Z,60.57
2022-11-29T22:58:55.652Z,59.83
2022-11-29T23:01:45.707Z,55.07
2022-11-29T23:04:36.615Z,56.77
2022-11-29T23:07:25.232Z,52.97
2022-11-29T23:10:13.872Z,60.67
2022-11-29T23:13:06.381Z,62.07
2022-11-29T23:15:56.881Z,61.20
2022-11-29T23:18:50.318Z,57.27
2022-11-29T23:21:39.811Z,60.33
2022-11-29T23:24:32.200Z,62.50
2022-11-29T23:27:23.815Z,55.33
2022-11-29T23:30:19.316Z,57.17
2022-11-29T23:33:07.894Z,55.43
2022-11-29T23:36:04.394Z,56.00
2022-11-29T23:38:57.047Z,56.07
2022-11-29T23:41:46.783Z,57.40
2022-11-29T23:44:37.351Z,54.70
2022-11-29T23:47:28.559Z,58.67
2022-11-29T23:50:17.256Z,58.33
2022-11-29T23:53:13.714Z,54.60
2022-11-29T23:56:03.026Z,53.80
2022-11-29T23:58:56.433Z,58.17
